sensor_id;sensor_type;location;lat;lon;timestamp;pressure;altitude;pressure_sealevel;temperature;humidity
64683;BME280;51107;47.652;19.016;2023-06-24T00:00:07;99939.56;;;17.85;100.00
64683;BME280;51107;47.652;19.016;2023-06-24T00:02:38;99936.00;;;17.93;100.00
64683;BME280;51107;47.652;19.016;2023-06-24T00:05:06;99938.09;;;18.04;100.00
64683;BME280;51107;47.652;19.016;2023-06-24T00:07:36;99932.41;;;18.01;100.00
64683;BME280;51107;47.652;19.016;2023-06-24T00:10:14;99935.69;;;18.09;100.00
64683;BME280;51107;47.652;19.016;2023-06-24T00:12:44;99970.56;;;18.05;100.00
64683;BME280;51107;47.652;19.016;2023-06-24T00:15:13;99971.78;;;18.09;100.00
64683;BME280;51107;47.652;19.016;2023-06-24T00:17:41;99988.81;;;18.06;100.00
64683;BME280;51107;47.652;19.016;2023-06-24T00:20:10;99978.06;;;18.08;100.00
64683;BME280;51107;47.652;19.016;2023-06-24T00:22:39;99979.50;;;18.10;100.00
64683;BME280;51107;47.652;19.016;2023-06-24T00:25:12;99985.53;;;18.04;100.00
64683;BME280;51107;47.652;19.016;2023-06-24T00:27:41;99986.53;;;17.96;100.00
64683;BME280;51107;47.652;19.016;2023-06-24T00:30:11;100000.13;;;18.00;100.00
64683;BME280;51107;47.652;19.016;2023-06-24T00:32:40;99998.53;;;18.06;100.00
64683;BME280;51107;47.652;19.016;2023-06-24T00:35:09;100009.91;;;18.06;100.00
64683;BME280;51107;47.652;19.016;2023-06-24T00:37:40;99990.00;;;18.04;100.00
64683;BME280;51107;47.652;19.016;2023-06-24T00:40:14;100003.78;;;18.06;100.00
64683;BME280;51107;47.652;19.016;2023-06-24T00:42:46;99993.25;;;18.06;100.00
64683;BME280;51107;47.652;19.016;2023-06-24T00:45:15;99987.97;;;18.06;100.00
64683;BME280;51107;47.652;19.016;2023-06-24T00:47:44;99990.44;;;18.07;100.00
64683;BME280;51107;47.652;19.016;2023-06-24T00:50:15;99981.69;;;18.07;100.00
64683;BME280;51107;47.652;19.016;2023-06-24T00:52:44;99985.19;;;18.14;96.19
64683;BME280;51107;47.652;19.016;2023-06-24T00:55:14;99978.25;;;18.06;96.37
64683;BME280;51107;47.652;19.016;2023-06-24T00:57:51;99962.66;;;18.05;96.21
64683;BME280;51107;47.652;19.016;2023-06-24T01:00:21;99947.22;;;18.08;93.47
64683;BME280;51107;47.652;19.016;2023-06-24T01:02:50;99971.41;;;18.12;98.43
64683;BME280;51107;47.652;19.016;2023-06-24T01:05:19;99951.62;;;18.36;88.12
64683;BME280;51107;47.652;19.016;2023-06-24T01:07:52;99947.94;;;18.24;93.12
64683;BME280;51107;47.652;19.016;2023-06-24T01:10:24;99955.44;;;18.27;90.18
64683;BME280;51107;47.652;19.016;2023-06-24T01:12:53;99947.09;;;18.23;90.98
64683;BME280;51107;47.652;19.016;2023-06-24T01:15:21;99931.41;;;18.08;95.75
64683;BME280;51107;47.652;19.016;2023-06-24T01:31:58;99914.50;;;18.38;89.17
64683;BME280;51107;47.652;19.016;2023-06-24T01:37:10;99911.66;;;18.32;89.96
64683;BME280;51107;47.652;19.016;2023-06-24T01:40:45;99916.28;;;18.30;91.36
64683;BME280;51107;47.652;19.016;2023-06-24T01:42:47;99911.19;;;18.22;92.18
64683;BME280;51107;47.652;19.016;2023-06-24T01:45:20;99921.75;;;18.15;91.16
64683;BME280;51107;47.652;19.016;2023-06-24T01:48:09;99911.78;;;18.17;91.97
64683;BME280;51107;47.652;19.016;2023-06-24T01:50:44;99914.22;;;18.19;91.92
64683;BME280;51107;47.652;19.016;2023-06-24T01:53:15;99909.41;;;18.29;90.07
64683;BME280;51107;47.652;19.016;2023-06-24T01:55:45;99917.91;;;18.25;91.30
64683;BME280;51107;47.652;19.016;2023-06-24T01:58:15;99918.09;;;18.23;91.65
64683;BME280;51107;47.652;19.016;2023-06-24T02:00:45;99911.00;;;18.17;90.54
64683;BME280;51107;47.652;19.016;2023-06-24T02:03:14;99898.97;;;18.08;90.61
64683;BME280;51107;47.652;19.016;2023-06-24T02:05:44;99906.06;;;18.01;91.76
64683;BME280;51107;47.652;19.016;2023-06-24T02:08:15;99894.47;;;17.95;93.85
64683;BME280;51107;47.652;19.016;2023-06-24T02:10:45;99891.69;;;18.16;90.04
64683;BME280;51107;47.652;19.016;2023-06-24T02:13:16;99888.06;;;18.17;88.68
64683;BME280;51107;47.652;19.016;2023-06-24T02:15:45;99873.66;;;18.13;89.69
64683;BME280;51107;47.652;19.016;2023-06-24T02:18:16;99871.19;;;18.05;89.56
64683;BME280;51107;47.652;19.016;2023-06-24T02:20:46;99871.81;;;18.14;89.80
64683;BME280;51107;47.652;19.016;2023-06-24T02:23:19;99884.81;;;18.22;90.16
64683;BME280;51107;47.652;19.016;2023-06-24T02:25:49;99873.03;;;18.05;89.96
64683;BME280;51107;47.652;19.016;2023-06-24T02:28:18;99863.91;;;18.07;89.62
64683;BME280;51107;47.652;19.016;2023-06-24T02:30:48;99892.94;;;18.21;90.51
64683;BME280;51107;47.652;19.016;2023-06-24T02:33:17;99901.84;;;18.13;88.97
64683;BME280;51107;47.652;19.016;2023-06-24T02:35:45;99903.06;;;18.10;89.53
64683;BME280;51107;47.652;19.016;2023-06-24T02:38:14;99909.94;;;18.05;89.72
64683;BME280;51107;47.652;19.016;2023-06-24T02:40:45;99906.88;;;18.08;89.22
64683;BME280;51107;47.652;19.016;2023-06-24T02:43:14;99905.19;;;17.93;89.85
64683;BME280;51107;47.652;19.016;2023-06-24T02:45:44;99912.72;;;17.96;87.57
64683;BME280;51107;47.652;19.016;2023-06-24T02:48:13;99909.84;;;17.91;90.55
64683;BME280;51107;47.652;19.016;2023-06-24T02:50:42;99920.84;;;18.02;91.65
64683;BME280;51107;47.652;19.016;2023-06-24T02:53:12;99923.31;;;18.03;90.78
64683;BME280;51107;47.652;19.016;2023-06-24T02:55:43;99913.75;;;18.02;90.48
64683;BME280;51107;47.652;19.016;2023-06-24T02:58:12;99920.62;;;17.96;91.53
64683;BME280;51107;47.652;19.016;2023-06-24T03:00:42;99930.78;;;17.99;91.49
64683;BME280;51107;47.652;19.016;2023-06-24T03:03:11;99920.84;;;17.95;90.64
64683;BME280;51107;47.652;19.016;2023-06-24T03:05:40;99922.88;;;17.99;89.28
64683;BME280;51107;47.652;19.016;2023-06-24T03:08:11;99932.91;;;17.89;89.65
64683;BME280;51107;47.652;19.016;2023-06-24T03:10:42;99940.09;;;17.95;89.24
64683;BME280;51107;47.652;19.016;2023-06-24T03:13:12;99947.41;;;18.00;90.30
64683;BME280;51107;47.652;19.016;2023-06-24T03:15:41;99941.97;;;18.08;91.06
64683;BME280;51107;47.652;19.016;2023-06-24T03:18:09;99947.00;;;17.96;90.68
64683;BME280;51107;47.652;19.016;2023-06-24T03:20:37;99948.47;;;17.77;91.71
64683;BME280;51107;47.652;19.016;2023-06-24T03:23:11;99951.34;;;17.82;91.11
64683;BME280;51107;47.652;19.016;2023-06-24T03:25:39;99948.50;;;17.84;92.59
64683;BME280;51107;47.652;19.016;2023-06-24T03:28:07;99950.94;;;17.86;92.67
64683;BME280;51107;47.652;19.016;2023-06-24T03:30:36;99960.28;;;17.88;91.67
64683;BME280;51107;47.652;19.016;2023-06-24T03:33:05;99963.53;;;17.90;92.51
64683;BME280;51107;47.652;19.016;2023-06-24T03:35:34;99972.91;;;17.93;91.50
64683;BME280;51107;47.652;19.016;2023-06-24T03:38:03;99982.81;;;17.91;91.36
64683;BME280;51107;47.652;19.016;2023-06-24T03:40:31;99978.09;;;17.86;92.15
64683;BME280;51107;47.652;19.016;2023-06-24T03:43:00;99979.50;;;17.82;90.88
64683;BME280;51107;47.652;19.016;2023-06-24T03:45:28;99969.87;;;17.68;92.19
64683;BME280;51107;47.652;19.016;2023-06-24T03:47:57;99966.62;;;17.65;92.74
64683;BME280;51107;47.652;19.016;2023-06-24T03:50:25;99968.09;;;17.75;92.93
64683;BME280;51107;47.652;19.016;2023-06-24T03:52:54;99974.72;;;17.64;91.25
64683;BME280;51107;47.652;19.016;2023-06-24T03:55:22;99983.41;;;17.58;91.67
64683;BME280;51107;47.652;19.016;2023-06-24T03:57:50;99982.00;;;17.62;92.38
64683;BME280;51107;47.652;19.016;2023-06-24T04:00:18;99981.22;;;17.68;91.26
64683;BME280;51107;47.652;19.016;2023-06-24T04:02:49;99978.34;;;17.63;92.70
64683;BME280;51107;47.652;19.016;2023-06-24T04:05:19;99986.22;;;17.56;92.69
64683;BME280;51107;47.652;19.016;2023-06-24T04:07:49;99991.34;;;17.64;93.15
64683;BME280;51107;47.652;19.016;2023-06-24T04:10:19;99982.81;;;17.62;91.10
64683;BME280;51107;47.652;19.016;2023-06-24T04:12:47;99983.31;;;17.73;92.14
64683;BME280;51107;47.652;19.016;2023-06-24T04:15:15;99984.91;;;17.74;92.38
64683;BME280;51107;47.652;19.016;2023-06-24T04:17:43;99988.84;;;17.85;91.07
64683;BME280;51107;47.652;19.016;2023-06-24T04:20:11;100003.84;;;17.84;90.52
64683;BME280;51107;47.652;19.016;2023-06-24T04:22:41;100017.91;;;17.91;90.34
64683;BME280;51107;47.652;19.016;2023-06-24T04:25:10;100012.25;;;17.94;90.04
64683;BME280;51107;47.652;19.016;2023-06-24T04:27:39;100013.59;;;17.90;90.13
64683;BME280;51107;47.652;19.016;2023-06-24T04:30:08;100004.91;;;17.90;90.33
64683;BME280;51107;47.652;19.016;2023-06-24T04:32:37;100003.34;;;17.95;90.26
64683;BME280;51107;47.652;19.016;2023-06-24T04:35:05;100001.75;;;18.01;90.38
64683;BME280;51107;47.652;19.016;2023-06-24T04:37:34;100004.97;;;17.96;89.33
64683;BME280;51107;47.652;19.016;2023-06-24T04:40:02;100011.53;;;18.14;88.86
64683;BME280;51107;47.652;19.016;2023-06-24T04:42:31;100003.03;;;18.12;90.04
64683;BME280;51107;47.652;19.016;2023-06-24T04:44:59;100004.19;;;18.03;89.11
64683;BME280;51107;47.652;19.016;2023-06-24T04:47:27;100006.25;;;18.07;90.99
64683;BME280;51107;47.652;19.016;2023-06-24T04:49:56;100017.72;;;18.28;88.41
64683;BME280;51107;47.652;19.016;2023-06-24T04:52:24;100028.03;;;18.23;89.25
64683;BME280;51107;47.652;19.016;2023-06-24T04:54:52;100009.66;;;18.36;88.20
64683;BME280;51107;47.652;19.016;2023-06-24T04:57:26;100002.16;;;18.40;87.20
64683;BME280;51107;47.652;19.016;2023-06-24T04:59:55;100005.16;;;18.30;88.77
64683;BME280;51107;47.652;19.016;2023-06-24T05:02:24;100006.97;;;18.29;88.64
64683;BME280;51107;47.652;19.016;2023-06-24T05:04:52;100010.84;;;18.33;88.23
64683;BME280;51107;47.652;19.016;2023-06-24T05:07:21;100020.22;;;18.43;88.26
64683;BME280;51107;47.652;19.016;2023-06-24T05:09:49;100023.91;;;18.55;88.82
64683;BME280;51107;47.652;19.016;2023-06-24T05:12:19;100017.44;;;18.58;87.76
64683;BME280;51107;47.652;19.016;2023-06-24T05:14:51;100018.88;;;18.60;86.87
64683;BME280;51107;47.652;19.016;2023-06-24T05:17:22;100018.66;;;18.62;87.87
64683;BME280;51107;47.652;19.016;2023-06-24T05:19:50;100018.09;;;18.66;86.52
64683;BME280;51107;47.652;19.016;2023-06-24T05:22:18;100018.91;;;18.67;85.91
64683;BME280;51107;47.652;19.016;2023-06-24T05:24:46;100024.38;;;18.65;87.83
64683;BME280;51107;47.652;19.016;2023-06-24T05:27:15;100027.78;;;18.59;88.54
64683;BME280;51107;47.652;19.016;2023-06-24T05:29:43;100023.37;;;18.66;86.78
64683;BME280;51107;47.652;19.016;2023-06-24T05:32:12;100032.53;;;18.71;86.43
64683;BME280;51107;47.652;19.016;2023-06-24T05:34:41;100034.13;;;18.72;85.97
64683;BME280;51107;47.652;19.016;2023-06-24T05:37:09;100036.00;;;18.78;85.67
64683;BME280;51107;47.652;19.016;2023-06-24T05:39:37;100041.09;;;18.86;86.56
64683;BME280;51107;47.652;19.016;2023-06-24T05:42:06;100038.28;;;18.88;87.89
64683;BME280;51107;47.652;19.016;2023-06-24T05:44:34;100039.12;;;19.01;85.50
64683;BME280;51107;47.652;19.016;2023-06-24T05:47:02;100040.56;;;19.04;85.16
64683;BME280;51107;47.652;19.016;2023-06-24T05:49:31;100042.22;;;19.12;84.88
64683;BME280;51107;47.652;19.016;2023-06-24T05:51:59;100048.13;;;19.21;84.29
64683;BME280;51107;47.652;19.016;2023-06-24T05:54:27;100051.16;;;19.24;84.53
64683;BME280;51107;47.652;19.016;2023-06-24T05:56:55;100047.31;;;19.27;85.20
64683;BME280;51107;47.652;19.016;2023-06-24T05:59:23;100053.81;;;19.31;82.98
64683;BME280;51107;47.652;19.016;2023-06-24T06:01:52;100061.16;;;19.35;83.24
64683;BME280;51107;47.652;19.016;2023-06-24T06:04:20;100065.41;;;19.23;84.14
64683;BME280;51107;47.652;19.016;2023-06-24T06:06:48;100062.16;;;19.41;83.45
64683;BME280;51107;47.652;19.016;2023-06-24T06:09:16;100061.97;;;19.49;83.04
64683;BME280;51107;47.652;19.016;2023-06-24T06:11:45;100059.75;;;19.46;84.03
64683;BME280;51107;47.652;19.016;2023-06-24T06:14:13;100060.75;;;19.52;83.40
64683;BME280;51107;47.652;19.016;2023-06-24T06:16:42;100066.84;;;19.59;82.91
64683;BME280;51107;47.652;19.016;2023-06-24T06:19:10;100068.09;;;19.70;81.86
64683;BME280;51107;47.652;19.016;2023-06-24T06:21:38;100077.00;;;19.62;83.97
64683;BME280;51107;47.652;19.016;2023-06-24T06:24:07;100082.94;;;19.71;83.24
64683;BME280;51107;47.652;19.016;2023-06-24T06:26:41;100087.81;;;19.94;81.71
64683;BME280;51107;47.652;19.016;2023-06-24T06:29:11;100089.88;;;19.92;81.61
64683;BME280;51107;47.652;19.016;2023-06-24T06:31:39;100091.28;;;19.88;82.93
64683;BME280;51107;47.652;19.016;2023-06-24T06:34:07;100092.31;;;20.00;82.73
64683;BME280;51107;47.652;19.016;2023-06-24T06:36:36;100088.59;;;20.15;83.13
64683;BME280;51107;47.652;19.016;2023-06-24T06:39:05;100099.38;;;20.27;82.12
64683;BME280;51107;47.652;19.016;2023-06-24T06:41:33;100094.28;;;20.39;81.67
64683;BME280;51107;47.652;19.016;2023-06-24T06:44:01;100092.66;;;20.37;82.45
64683;BME280;51107;47.652;19.016;2023-06-24T06:46:30;100096.28;;;20.50;80.26
64683;BME280;51107;47.652;19.016;2023-06-24T06:48:59;100106.84;;;20.57;79.18
64683;BME280;51107;47.652;19.016;2023-06-24T06:51:28;100103.81;;;20.53;80.43
64683;BME280;51107;47.652;19.016;2023-06-24T06:53:56;100108.09;;;20.54;79.91
64683;BME280;51107;47.652;19.016;2023-06-24T06:56:25;100106.59;;;20.72;78.72
64683;BME280;51107;47.652;19.016;2023-06-24T06:58:53;100113.53;;;20.73;79.52
64683;BME280;51107;47.652;19.016;2023-06-24T07:01:22;100116.81;;;20.75;79.05
64683;BME280;51107;47.652;19.016;2023-06-24T07:03:50;100115.94;;;20.81;79.93
64683;BME280;51107;47.652;19.016;2023-06-24T07:06:19;100123.28;;;20.85;79.23
64683;BME280;51107;47.652;19.016;2023-06-24T07:08:48;100116.50;;;20.96;80.42
64683;BME280;51107;47.652;19.016;2023-06-24T07:11:16;100124.28;;;21.30;79.14
64683;BME280;51107;47.652;19.016;2023-06-24T07:13:44;100118.47;;;21.53;77.86
64683;BME280;51107;47.652;19.016;2023-06-24T07:16:15;100122.66;;;21.67;75.67
64683;BME280;51107;47.652;19.016;2023-06-24T07:18:43;100127.38;;;21.65;73.31
64683;BME280;51107;47.652;19.016;2023-06-24T07:21:11;100112.03;;;21.93;73.29
64683;BME280;51107;47.652;19.016;2023-06-24T07:23:40;100114.63;;;21.99;72.37
64683;BME280;51107;47.652;19.016;2023-06-24T07:26:08;100126.78;;;22.14;73.02
64683;BME280;51107;47.652;19.016;2023-06-24T07:28:36;100129.25;;;22.34;74.49
64683;BME280;51107;47.652;19.016;2023-06-24T07:31:04;100127.25;;;22.48;73.29
64683;BME280;51107;47.652;19.016;2023-06-24T07:33:33;100114.66;;;22.62;72.12
64683;BME280;51107;47.652;19.016;2023-06-24T07:36:01;100119.06;;;22.86;69.96
64683;BME280;51107;47.652;19.016;2023-06-24T07:38:30;100118.06;;;22.69;68.66
64683;BME280;51107;47.652;19.016;2023-06-24T07:40:58;100113.66;;;22.93;71.26
64683;BME280;51107;47.652;19.016;2023-06-24T07:43:26;100117.16;;;23.12;68.55
64683;BME280;51107;47.652;19.016;2023-06-24T07:45:55;100124.81;;;23.20;69.12
64683;BME280;51107;47.652;19.016;2023-06-24T07:48:23;100123.53;;;23.23;68.47
64683;BME280;51107;47.652;19.016;2023-06-24T07:50:51;100123.66;;;23.58;66.00
64683;BME280;51107;47.652;19.016;2023-06-24T07:53:19;100129.50;;;23.91;66.29
64683;BME280;51107;47.652;19.016;2023-06-24T07:55:47;100124.78;;;24.17;68.04
64683;BME280;51107;47.652;19.016;2023-06-24T07:58:15;100132.88;;;24.22;66.58
64683;BME280;51107;47.652;19.016;2023-06-24T08:00:44;100127.09;;;24.01;64.89
64683;BME280;51107;47.652;19.016;2023-06-24T08:03:13;100130.56;;;24.02;64.21
64683;BME280;51107;47.652;19.016;2023-06-24T08:05:42;100131.50;;;24.31;67.42
64683;BME280;51107;47.652;19.016;2023-06-24T08:08:11;100128.47;;;24.39;64.12
64683;BME280;51107;47.652;19.016;2023-06-24T08:10:39;100135.63;;;24.51;66.81
64683;BME280;51107;47.652;19.016;2023-06-24T08:13:07;100139.53;;;24.84;66.07
64683;BME280;51107;47.652;19.016;2023-06-24T08:15:36;100144.44;;;25.04;64.38
64683;BME280;51107;47.652;19.016;2023-06-24T08:18:09;100146.72;;;25.12;63.88
64683;BME280;51107;47.652;19.016;2023-06-24T08:20:37;100144.78;;;25.07;64.73
64683;BME280;51107;47.652;19.016;2023-06-24T08:23:05;100143.41;;;25.34;65.24
64683;BME280;51107;47.652;19.016;2023-06-24T08:25:33;100142.28;;;25.18;63.71
64683;BME280;51107;47.652;19.016;2023-06-24T08:28:03;100140.03;;;25.38;62.36
64683;BME280;51107;47.652;19.016;2023-06-24T08:30:31;100141.13;;;25.71;64.94
64683;BME280;51107;47.652;19.016;2023-06-24T08:33:01;100139.34;;;25.60;62.18
64683;BME280;51107;47.652;19.016;2023-06-24T08:35:31;100136.34;;;24.99;61.26
64683;BME280;51107;47.652;19.016;2023-06-24T08:38:00;100135.03;;;25.01;63.13
64683;BME280;51107;47.652;19.016;2023-06-24T08:40:28;100149.84;;;24.80;64.59
64683;BME280;51107;47.652;19.016;2023-06-24T08:42:57;100132.16;;;24.74;65.60
64683;BME280;51107;47.652;19.016;2023-06-24T08:45:26;100144.06;;;24.71;63.61
64683;BME280;51107;47.652;19.016;2023-06-24T08:47:54;100143.16;;;25.06;62.75
64683;BME280;51107;47.652;19.016;2023-06-24T08:50:27;100146.78;;;25.58;67.20
64683;BME280;51107;47.652;19.016;2023-06-24T08:52:59;100148.06;;;25.55;61.63
64683;BME280;51107;47.652;19.016;2023-06-24T08:55:32;100153.22;;;24.75;60.64
64683;BME280;51107;47.652;19.016;2023-06-24T08:58:04;100149.88;;;25.09;64.28
64683;BME280;51107;47.652;19.016;2023-06-24T09:00:32;100155.81;;;25.28;60.35
64683;BME280;51107;47.652;19.016;2023-06-24T09:03:01;100155.19;;;25.50;60.46
64683;BME280;51107;47.652;19.016;2023-06-24T09:05:30;100145.94;;;25.40;61.25
64683;BME280;51107;47.652;19.016;2023-06-24T09:07:58;100149.59;;;25.68;65.07
64683;BME280;51107;47.652;19.016;2023-06-24T09:10:34;100144.44;;;25.96;62.73
64683;BME280;51107;47.652;19.016;2023-06-24T09:13:04;100150.03;;;25.94;59.04
64683;BME280;51107;47.652;19.016;2023-06-24T09:15:36;100148.47;;;25.98;61.21
64683;BME280;51107;47.652;19.016;2023-06-24T09:18:05;100147.34;;;25.94;60.48
64683;BME280;51107;47.652;19.016;2023-06-24T09:20:34;100142.31;;;25.98;61.26
64683;BME280;51107;47.652;19.016;2023-06-24T09:23:08;100146.97;;;26.02;61.73
64683;BME280;51107;47.652;19.016;2023-06-24T09:25:36;100142.91;;;26.17;59.02
64683;BME280;51107;47.652;19.016;2023-06-24T09:28:05;100144.34;;;25.73;62.74
64683;BME280;51107;47.652;19.016;2023-06-24T09:30:33;100140.12;;;25.60;59.78
64683;BME280;51107;47.652;19.016;2023-06-24T09:33:01;100136.13;;;25.00;63.41
64683;BME280;51107;47.652;19.016;2023-06-24T09:35:35;100142.22;;;25.13;62.24
64683;BME280;51107;47.652;19.016;2023-06-24T09:38:06;100121.66;;;25.25;61.31
64683;BME280;51107;47.652;19.016;2023-06-24T09:40:34;100129.72;;;25.01;62.56
64683;BME280;51107;47.652;19.016;2023-06-24T09:43:05;100130.81;;;25.17;64.49
64683;BME280;51107;47.652;19.016;2023-06-24T09:45:33;100146.03;;;25.17;65.28
64683;BME280;51107;47.652;19.016;2023-06-24T09:48:02;100136.16;;;25.46;61.63
64683;BME280;51107;47.652;19.016;2023-06-24T09:50:33;100140.97;;;25.32;61.71
64683;BME280;51107;47.652;19.016;2023-06-24T09:53:02;100135.28;;;25.40;63.14
64683;BME280;51107;47.652;19.016;2023-06-24T09:55:30;100131.19;;;25.67;61.76
64683;BME280;51107;47.652;19.016;2023-06-24T09:58:00;100134.00;;;25.60;62.11
64683;BME280;51107;47.652;19.016;2023-06-24T10:00:28;100137.25;;;25.79;64.89
64683;BME280;51107;47.652;19.016;2023-06-24T10:02:57;100130.12;;;25.68;61.39
64683;BME280;51107;47.652;19.016;2023-06-24T10:05:28;100128.91;;;25.58;61.27
64683;BME280;51107;47.652;19.016;2023-06-24T10:07:56;100126.56;;;25.62;62.62
64683;BME280;51107;47.652;19.016;2023-06-24T10:10:24;100125.84;;;25.67;65.61
64683;BME280;51107;47.652;19.016;2023-06-24T10:12:52;100133.22;;;26.10;61.50
64683;BME280;51107;47.652;19.016;2023-06-24T10:15:21;100118.03;;;26.33;61.14
64683;BME280;51107;47.652;19.016;2023-06-24T10:17:51;100113.19;;;26.52;59.97
64683;BME280;51107;47.652;19.016;2023-06-24T10:20:36;100112.41;;;26.52;62.16
64683;BME280;51107;47.652;19.016;2023-06-24T10:23:06;100106.62;;;26.38;60.66
64683;BME280;51107;47.652;19.016;2023-06-24T10:25:37;100107.00;;;26.47;59.88
64683;BME280;51107;47.652;19.016;2023-06-24T10:28:06;100097.41;;;26.51;61.68
64683;BME280;51107;47.652;19.016;2023-06-24T10:30:35;100096.41;;;26.57;60.86
64683;BME280;51107;47.652;19.016;2023-06-24T10:33:10;100095.00;;;26.49;58.31
64683;BME280;51107;47.652;19.016;2023-06-24T10:35:41;100093.12;;;26.27;60.14
64683;BME280;51107;47.652;19.016;2023-06-24T10:38:11;100094.66;;;26.68;61.01
64683;BME280;51107;47.652;19.016;2023-06-24T10:40:42;100086.84;;;26.61;60.77
64683;BME280;51107;47.652;19.016;2023-06-24T10:45:53;100103.12;;;26.37;61.88
64683;BME280;51107;47.652;19.016;2023-06-24T10:48:22;100102.19;;;26.49;61.80
64683;BME280;51107;47.652;19.016;2023-06-24T10:50:50;100103.72;;;26.22;60.23
64683;BME280;51107;47.652;19.016;2023-06-24T10:53:19;100093.53;;;26.19;59.21
64683;BME280;51107;47.652;19.016;2023-06-24T10:55:47;100085.97;;;26.11;61.75
64683;BME280;51107;47.652;19.016;2023-06-24T10:58:15;100092.19;;;26.00;63.21
64683;BME280;51107;47.652;19.016;2023-06-24T11:00:44;100088.66;;;26.33;62.22
64683;BME280;51107;47.652;19.016;2023-06-24T11:03:15;100092.50;;;26.65;62.56
64683;BME280;51107;47.652;19.016;2023-06-24T11:05:45;100097.72;;;26.54;60.02
64683;BME280;51107;47.652;19.016;2023-06-24T11:08:14;100099.16;;;26.62;62.07
64683;BME280;51107;47.652;19.016;2023-06-24T11:10:46;100097.28;;;26.40;59.70
64683;BME280;51107;47.652;19.016;2023-06-24T11:13:15;100090.50;;;26.10;60.02
64683;BME280;51107;47.652;19.016;2023-06-24T11:15:43;100090.88;;;26.19;60.61
64683;BME280;51107;47.652;19.016;2023-06-24T11:18:11;100088.13;;;25.97;62.28
64683;BME280;51107;47.652;19.016;2023-06-24T11:20:40;100101.56;;;26.19;61.37
64683;BME280;51107;47.652;19.016;2023-06-24T11:23:09;100105.28;;;26.01;60.50
64683;BME280;51107;47.652;19.016;2023-06-24T11:25:39;100106.19;;;25.90;61.12
64683;BME280;51107;47.652;19.016;2023-06-24T11:28:16;100110.44;;;25.91;63.14
64683;BME280;51107;47.652;19.016;2023-06-24T11:30:49;100104.25;;;25.68;63.92
64683;BME280;51107;47.652;19.016;2023-06-24T11:33:28;100104.16;;;25.63;62.10
64683;BME280;51107;47.652;19.016;2023-06-24T11:35:56;100093.34;;;25.53;62.29
64683;BME280;51107;47.652;19.016;2023-06-24T11:38:25;100092.75;;;25.51;63.03
64683;BME280;51107;47.652;19.016;2023-06-24T11:41:00;100088.66;;;25.60;62.62
64683;BME280;51107;47.652;19.016;2023-06-24T11:43:28;100086.88;;;25.49;64.86
64683;BME280;51107;47.652;19.016;2023-06-24T11:45:57;100089.44;;;25.60;61.48
64683;BME280;51107;47.652;19.016;2023-06-24T11:48:28;100087.84;;;25.59;62.72
64683;BME280;51107;47.652;19.016;2023-06-24T11:50:57;100084.19;;;25.66;63.32
64683;BME280;51107;47.652;19.016;2023-06-24T11:53:41;100075.13;;;25.84;63.64
64683;BME280;51107;47.652;19.016;2023-06-24T11:56:12;100077.31;;;25.70;62.83
64683;BME280;51107;47.652;19.016;2023-06-24T11:58:42;100066.22;;;25.95;61.10
64683;BME280;51107;47.652;19.016;2023-06-24T12:01:11;100055.31;;;25.97;61.63
64683;BME280;51107;47.652;19.016;2023-06-24T12:03:41;100061.44;;;26.14;60.83
64683;BME280;51107;47.652;19.016;2023-06-24T12:06:09;100059.53;;;25.92;59.86
64683;BME280;51107;47.652;19.016;2023-06-24T12:08:37;100056.19;;;25.85;60.51
64683;BME280;51107;47.652;19.016;2023-06-24T12:11:19;100060.34;;;25.59;63.18
64683;BME280;51107;47.652;19.016;2023-06-24T12:13:47;100054.22;;;25.58;63.23
64683;BME280;51107;47.652;19.016;2023-06-24T12:16:15;100045.34;;;25.53;64.74
64683;BME280;51107;47.652;19.016;2023-06-24T12:18:44;100054.22;;;25.58;64.26
64683;BME280;51107;47.652;19.016;2023-06-24T12:21:12;100043.87;;;25.62;62.74
64683;BME280;51107;47.652;19.016;2023-06-24T12:23:40;100042.19;;;25.39;62.35
64683;BME280;51107;47.652;19.016;2023-06-24T12:26:09;100038.69;;;24.92;65.12
64683;BME280;51107;47.652;19.016;2023-06-24T12:28:37;100034.94;;;25.22;63.27
64683;BME280;51107;47.652;19.016;2023-06-24T12:31:05;100030.75;;;25.26;64.65
64683;BME280;51107;47.652;19.016;2023-06-24T12:33:34;100039.56;;;25.44;64.02
64683;BME280;51107;47.652;19.016;2023-06-24T12:36:02;100036.34;;;25.42;65.03
64683;BME280;51107;47.652;19.016;2023-06-24T12:38:31;100036.00;;;25.72;64.20
64683;BME280;51107;47.652;19.016;2023-06-24T12:40:59;100043.06;;;25.62;63.79
64683;BME280;51107;47.652;19.016;2023-06-24T12:43:27;100043.72;;;25.52;62.75
64683;BME280;51107;47.652;19.016;2023-06-24T12:45:55;100038.28;;;25.47;64.09
64683;BME280;51107;47.652;19.016;2023-06-24T12:48:24;100042.56;;;25.48;63.63
64683;BME280;51107;47.652;19.016;2023-06-24T12:50:52;100035.16;;;25.50;63.91
64683;BME280;51107;47.652;19.016;2023-06-24T12:53:23;100035.00;;;25.27;64.36
64683;BME280;51107;47.652;19.016;2023-06-24T12:55:51;100028.13;;;25.43;63.41
64683;BME280;51107;47.652;19.016;2023-06-24T12:58:23;100031.16;;;25.52;64.24
64683;BME280;51107;47.652;19.016;2023-06-24T13:00:53;100038.06;;;25.65;63.76
64683;BME280;51107;47.652;19.016;2023-06-24T13:03:21;100032.97;;;25.64;63.31
64683;BME280;51107;47.652;19.016;2023-06-24T13:05:49;100025.28;;;25.50;66.29
64683;BME280;51107;47.652;19.016;2023-06-24T13:08:18;100033.53;;;25.49;63.81
64683;BME280;51107;47.652;19.016;2023-06-24T13:10:46;100031.16;;;25.52;65.83
64683;BME280;51107;47.652;19.016;2023-06-24T13:13:14;100031.28;;;25.40;64.59